sensor_id;sensor_type;location;lat;lon;timestamp;pressure;altitude;pressure_sealevel;temperature;humidity
9415;BME280;4746;35.664;139.738;2023-01-31T00:01:51;100652.84;;;8.33;26.11
9415;BME280;4746;35.664;139.738;2023-01-31T00:04:19;100656.25;;;8.33;26.39
9415;BME280;4746;35.664;139.738;2023-01-31T00:06:46;100653.84;;;8.39;26.17
9415;BME280;4746;35.664;139.738;2023-01-31T00:09:17;100653.81;;;8.38;26.02
9415;BME280;4746;35.664;139.738;2023-01-31T00:11:44;100663.19;;;8.37;25.91
9415;BME280;4746;35.664;139.738;2023-01-31T00:14:18;100656.53;;;8.45;25.89
9415;BME280;4746;35.664;139.738;2023-01-31T00:16:46;100676.91;;;8.42;25.48
9415;BME280;4746;35.664;139.738;2023-01-31T00:19:14;100667.47;;;8.38;26.05
9415;BME280;4746;35.664;139.738;2023-01-31T00:21:41;100660.63;;;8.37;25.71
9415;BME280;4746;35.664;139.738;2023-01-31T00:24:14;100656.38;;;8.38;25.51
9415;BME280;4746;35.664;139.738;2023-01-31T00:26:42;100670.88;;;8.39;25.82
9415;BME280;4746;35.664;139.738;2023-01-31T00:29:10;100655.53;;;8.39;25.83
9415;BME280;4746;35.664;139.738;2023-01-31T00:31:37;100643.69;;;8.41;25.91
9415;BME280;4746;35.664;139.738;2023-01-31T00:34:06;100633.41;;;8.39;25.76
9415;BME280;4746;35.664;139.738;2023-01-31T00:36:34;100628.44;;;8.44;25.60
9415;BME280;4746;35.664;139.738;2023-01-31T00:39:04;100620.00;;;8.48;25.38
9415;BME280;4746;35.664;139.738;2023-01-31T00:41:34;100620.06;;;8.49;25.57
9415;BME280;4746;35.664;139.738;2023-01-31T00:44:03;100609.88;;;8.51;25.37
9415;BME280;4746;35.664;139.738;2023-01-31T00:46:31;100618.56;;;8.59;25.08
9415;BME280;4746;35.664;139.738;2023-01-31T00:48:59;100606.78;;;8.67;25.24
9415;BME280;4746;35.664;139.738;2023-01-31T00:51:27;100616.31;;;8.75;25.87
9415;BME280;4746;35.664;139.738;2023-01-31T00:53:55;100612.28;;;8.85;25.15
9415;BME280;4746;35.664;139.738;2023-01-31T00:56:24;100607.25;;;8.88;24.79
9415;BME280;4746;35.664;139.738;2023-01-31T00:58:52;100599.56;;;8.88;24.83
9415;BME280;4746;35.664;139.738;2023-01-31T01:01:24;100595.34;;;8.90;24.98
9415;BME280;4746;35.664;139.738;2023-01-31T01:03:57;100590.19;;;8.87;24.44
9415;BME280;4746;35.664;139.738;2023-01-31T01:06:25;100595.22;;;8.84;24.63
9415;BME280;4746;35.664;139.738;2023-01-31T01:08:54;100592.75;;;8.88;24.79
9415;BME280;4746;35.664;139.738;2023-01-31T01:11:31;100581.94;;;8.99;25.02
9415;BME280;4746;35.664;139.738;2023-01-31T01:14:00;100593.97;;;9.06;24.94
9415;BME280;4746;35.664;139.738;2023-01-31T01:16:34;100580.44;;;9.10;24.67
9415;BME280;4746;35.664;139.738;2023-01-31T01:19:05;100584.72;;;9.13;25.01
9415;BME280;4746;35.664;139.738;2023-01-31T01:21:34;100565.13;;;9.12;24.72
9415;BME280;4746;35.664;139.738;2023-01-31T01:24:10;100588.16;;;9.15;24.47
9415;BME280;4746;35.664;139.738;2023-01-31T01:26:39;100556.66;;;9.16;24.60
9415;BME280;4746;35.664;139.738;2023-01-31T01:29:08;100566.97;;;9.20;23.94
9415;BME280;4746;35.664;139.738;2023-01-31T01:31:38;100577.31;;;9.26;24.58
9415;BME280;4746;35.664;139.738;2023-01-31T01:34:11;100556.94;;;9.31;24.59
9415;BME280;4746;35.664;139.738;2023-01-31T01:36:39;100550.22;;;9.37;24.65
9415;BME280;4746;35.664;139.738;2023-01-31T01:39:10;100550.41;;;9.48;24.19
9415;BME280;4746;35.664;139.738;2023-01-31T01:41:38;100559.00;;;9.51;24.28
9415;BME280;4746;35.664;139.738;2023-01-31T01:44:51;100554.03;;;9.60;24.28
9415;BME280;4746;35.664;139.738;2023-01-31T01:47:39;100554.09;;;9.63;24.30
9415;BME280;4746;35.664;139.738;2023-01-31T01:50:33;100551.66;;;9.72;24.58
9415;BME280;4746;35.664;139.738;2023-01-31T01:53:19;100550.91;;;9.79;24.56
9415;BME280;4746;35.664;139.738;2023-01-31T01:55:57;100534.03;;;9.90;24.43
9415;BME280;4746;35.664;139.738;2023-01-31T01:58:38;100557.25;;;10.00;24.17
9415;BME280;4746;35.664;139.738;2023-01-31T02:01:09;100537.63;;;10.01;24.02
9415;BME280;4746;35.664;139.738;2023-01-31T02:03:40;100536.03;;;10.07;23.96
9415;BME280;4746;35.664;139.738;2023-01-31T02:06:08;100525.06;;;10.16;23.29
9415;BME280;4746;35.664;139.738;2023-01-31T02:08:39;100531.16;;;10.27;23.80
9415;BME280;4746;35.664;139.738;2023-01-31T02:11:27;100527.88;;;10.37;23.50
9415;BME280;4746;35.664;139.738;2023-01-31T02:14:16;100520.28;;;10.42;23.36
9415;BME280;4746;35.664;139.738;2023-01-31T02:16:45;100522.97;;;10.51;23.56
9415;BME280;4746;35.664;139.738;2023-01-31T02:19:37;100524.09;;;10.74;23.38
9415;BME280;4746;35.664;139.738;2023-01-31T02:22:31;100505.44;;;10.89;23.10
9415;BME280;4746;35.664;139.738;2023-01-31T02:37:35;100476.59;;;11.09;22.61
9415;BME280;4746;35.664;139.738;2023-01-31T02:46:57;100462.31;;;11.38;22.03
9415;BME280;4746;35.664;139.738;2023-01-31T02:52:39;100455.69;;;11.67;22.41
9415;BME280;4746;35.664;139.738;2023-01-31T02:55:40;100454.94;;;11.84;22.42
9415;BME280;4746;35.664;139.738;2023-01-31T02:58:35;100444.75;;;12.00;22.51
9415;BME280;4746;35.664;139.738;2023-01-31T03:01:05;100448.28;;;12.20;22.11
9415;BME280;4746;35.664;139.738;2023-01-31T03:03:38;100445.75;;;12.34;21.97
9415;BME280;4746;35.664;139.738;2023-01-31T03:09:30;100434.81;;;12.88;21.79
9415;BME280;4746;35.664;139.738;2023-01-31T03:12:35;100431.38;;;13.22;21.58
9415;BME280;4746;35.664;139.738;2023-01-31T03:19:27;100408.97;;;13.81;20.78
9415;BME280;4746;35.664;139.738;2023-01-31T03:22:13;100411.47;;;14.00;20.46
9415;BME280;4746;35.664;139.738;2023-01-31T03:24:45;100411.50;;;13.98;20.15
9415;BME280;4746;35.664;139.738;2023-01-31T03:27:34;100408.88;;;14.06;20.37
9415;BME280;4746;35.664;139.738;2023-01-31T03:30:13;100408.00;;;14.19;20.14
9415;BME280;4746;35.664;139.738;2023-01-31T03:33:11;100399.41;;;14.18;20.13
9415;BME280;4746;35.664;139.738;2023-01-31T03:35:43;100393.44;;;14.10;19.82
9415;BME280;4746;35.664;139.738;2023-01-31T03:38:29;100392.53;;;14.25;20.08
9415;BME280;4746;35.664;139.738;2023-01-31T03:41:31;100400.19;;;14.38;19.68
9415;BME280;4746;35.664;139.738;2023-01-31T03:44:19;100395.78;;;14.51;19.73
9415;BME280;4746;35.664;139.738;2023-01-31T03:46:58;100388.69;;;14.85;19.91
9415;BME280;4746;35.664;139.738;2023-01-31T03:49:31;100385.88;;;15.11;19.65
9415;BME280;4746;35.664;139.738;2023-01-31T03:52:07;100383.03;;;15.45;19.37
9415;BME280;4746;35.664;139.738;2023-01-31T03:54:44;100381.19;;;16.26;19.37
9415;BME280;4746;35.664;139.738;2023-01-31T03:57:24;100373.16;;;17.03;18.25
9415;BME280;4746;35.664;139.738;2023-01-31T03:59:59;100378.69;;;17.81;17.60
9415;BME280;4746;35.664;139.738;2023-01-31T04:02:38;100372.81;;;18.14;17.02
9415;BME280;4746;35.664;139.738;2023-01-31T04:05:15;100374.16;;;18.33;16.95
9415;BME280;4746;35.664;139.738;2023-01-31T04:07:44;100371.91;;;18.56;16.70
9415;BME280;4746;35.664;139.738;2023-01-31T04:10:17;100360.97;;;18.80;16.66
9415;BME280;4746;35.664;139.738;2023-01-31T04:12:46;100357.63;;;18.73;16.48
9415;BME280;4746;35.664;139.738;2023-01-31T04:15:14;100349.84;;;18.75;16.39
9415;BME280;4746;35.664;139.738;2023-01-31T04:17:42;100348.59;;;18.53;16.82
9415;BME280;4746;35.664;139.738;2023-01-31T04:20:10;100349.16;;;18.30;16.92
9415;BME280;4746;35.664;139.738;2023-01-31T04:22:41;100351.84;;;19.32;16.54
9415;BME280;4746;35.664;139.738;2023-01-31T04:25:09;100348.41;;;21.56;14.93
9415;BME280;4746;35.664;139.738;2023-01-31T04:27:37;100337.44;;;24.21;14.29
9415;BME280;4746;35.664;139.738;2023-01-31T04:30:06;100333.94;;;26.41;13.00
9415;BME280;4746;35.664;139.738;2023-01-31T04:32:36;100319.41;;;27.68;12.41
9415;BME280;4746;35.664;139.738;2023-01-31T04:35:04;100320.31;;;28.23;12.00
9415;BME280;4746;35.664;139.738;2023-01-31T04:37:32;100324.59;;;29.04;11.52
9415;BME280;4746;35.664;139.738;2023-01-31T04:40:00;100321.38;;;29.64;11.13
9415;BME280;4746;35.664;139.738;2023-01-31T04:42:28;100321.66;;;30.10;11.17
9415;BME280;4746;35.664;139.738;2023-01-31T04:44:55;100328.88;;;30.43;10.78
9415;BME280;4746;35.664;139.738;2023-01-31T04:47:23;100328.59;;;31.18;10.35
9415;BME280;4746;35.664;139.738;2023-01-31T04:49:50;100322.84;;;32.02;9.95
9415;BME280;4746;35.664;139.738;2023-01-31T04:52:18;100320.63;;;32.72;9.55
9415;BME280;4746;35.664;139.738;2023-01-31T04:54:45;100319.41;;;33.59;9.68
9415;BME280;4746;35.664;139.738;2023-01-31T04:57:13;100319.63;;;34.36;8.94
9415;BME280;4746;35.664;139.738;2023-01-31T04:59:40;100319.72;;;34.64;8.44
9415;BME280;4746;35.664;139.738;2023-01-31T05:02:08;100316.47;;;34.52;8.59
9415;BME280;4746;35.664;139.738;2023-01-31T05:04:35;100325.63;;;34.68;8.46
9415;BME280;4746;35.664;139.738;2023-01-31T05:07:04;100320.00;;;34.22;8.40
9415;BME280;4746;35.664;139.738;2023-01-31T05:09:32;100318.53;;;33.38;7.85
9415;BME280;4746;35.664;139.738;2023-01-31T05:11:59;100333.56;;;32.66;8.08
9415;BME280;4746;35.664;139.738;2023-01-31T05:14:27;100331.69;;;32.24;8.27
9415;BME280;4746;35.664;139.738;2023-01-31T05:16:54;100332.88;;;32.31;8.91
9415;BME280;4746;35.664;139.738;2023-01-31T05:19:22;100333.06;;;32.50;8.87
9415;BME280;4746;35.664;139.738;2023-01-31T05:21:49;100343.66;;;31.73;8.81
9415;BME280;4746;35.664;139.738;2023-01-31T05:24:31;100345.16;;;32.32;9.13
9415;BME280;4746;35.664;139.738;2023-01-31T05:27:01;100348.66;;;31.44;8.77
9415;BME280;4746;35.664;139.738;2023-01-31T05:29:31;100345.25;;;28.85;9.51
9415;BME280;4746;35.664;139.738;2023-01-31T05:32:01;100344.31;;;28.73;9.98
9415;BME280;4746;35.664;139.738;2023-01-31T05:34:28;100344.69;;;30.32;9.28
9415;BME280;4746;35.664;139.738;2023-01-31T05:36:59;100349.50;;;31.10;9.62
9415;BME280;4746;35.664;139.738;2023-01-31T05:39:27;100342.03;;;31.49;9.19
9415;BME280;4746;35.664;139.738;2023-01-31T05:41:57;100342.50;;;31.99;9.02
9415;BME280;4746;35.664;139.738;2023-01-31T05:44:24;100327.91;;;32.59;8.64
9415;BME280;4746;35.664;139.738;2023-01-31T05:46:52;100339.56;;;32.68;8.32
9415;BME280;4746;35.664;139.738;2023-01-31T05:49:19;100344.19;;;32.66;8.23
9415;BME280;4746;35.664;139.738;2023-01-31T05:51:47;100354.56;;;30.54;8.90
9415;BME280;4746;35.664;139.738;2023-01-31T05:54:15;100359.69;;;28.26;9.76
9415;BME280;4746;35.664;139.738;2023-01-31T05:56:42;100371.75;;;27.30;10.18
9415;BME280;4746;35.664;139.738;2023-01-31T05:59:10;100367.47;;;27.72;10.09
9415;BME280;4746;35.664;139.738;2023-01-31T06:01:37;100379.63;;;26.39;10.72
9415;BME280;4746;35.664;139.738;2023-01-31T06:04:05;100383.03;;;24.72;11.71
9415;BME280;4746;35.664;139.738;2023-01-31T06:06:32;100382.69;;;24.96;11.42
9415;BME280;4746;35.664;139.738;2023-01-31T06:09:00;100376.88;;;27.17;10.79
9415;BME280;4746;35.664;139.738;2023-01-31T06:11:28;100376.84;;;26.72;10.52
9415;BME280;4746;35.664;139.738;2023-01-31T06:13:55;100381.19;;;24.55;11.67
9415;BME280;4746;35.664;139.738;2023-01-31T06:16:24;100394.41;;;23.16;12.30
9415;BME280;4746;35.664;139.738;2023-01-31T06:18:52;100390.16;;;22.26;13.03
9415;BME280;4746;35.664;139.738;2023-01-31T06:21:21;100406.53;;;21.59;13.33
9415;BME280;4746;35.664;139.738;2023-01-31T06:23:49;100405.75;;;21.04;13.69
9415;BME280;4746;35.664;139.738;2023-01-31T06:26:16;100414.91;;;20.62;14.15
9415;BME280;4746;35.664;139.738;2023-01-31T06:28:44;100423.53;;;20.05;14.59
9415;BME280;4746;35.664;139.738;2023-01-31T06:31:12;100429.78;;;19.33;15.45
9415;BME280;4746;35.664;139.738;2023-01-31T06:33:40;100427.34;;;18.53;15.09
9415;BME280;4746;35.664;139.738;2023-01-31T06:36:08;100437.38;;;17.82;16.00
9415;BME280;4746;35.664;139.738;2023-01-31T06:38:35;100439.06;;;17.40;16.32
9415;BME280;4746;35.664;139.738;2023-01-31T06:41:03;100444.78;;;17.04;16.87
9415;BME280;4746;35.664;139.738;2023-01-31T06:43:31;100451.28;;;16.73;17.07
9415;BME280;4746;35.664;139.738;2023-01-31T06:45:58;100455.09;;;16.47;17.07
9415;BME280;4746;35.664;139.738;2023-01-31T06:48:26;100443.41;;;16.14;17.63
9415;BME280;4746;35.664;139.738;2023-01-31T06:50:53;100443.69;;;15.89;18.08
9415;BME280;4746;35.664;139.738;2023-01-31T06:53:21;100448.22;;;15.68;18.00
9415;BME280;4746;35.664;139.738;2023-01-31T06:55:48;100451.00;;;15.47;18.06
9415;BME280;4746;35.664;139.738;2023-01-31T06:58:16;100446.00;;;15.29;18.09
9415;BME280;4746;35.664;139.738;2023-01-31T07:00:44;100456.41;;;15.14;18.22
9415;BME280;4746;35.664;139.738;2023-01-31T07:03:11;100460.78;;;15.03;18.84
9415;BME280;4746;35.664;139.738;2023-01-31T07:05:39;100455.59;;;15.12;18.66
9415;BME280;4746;35.664;139.738;2023-01-31T07:08:06;100453.59;;;15.44;18.18
9415;BME280;4746;35.664;139.738;2023-01-31T07:10:34;100455.25;;;15.54;18.51
9415;BME280;4746;35.664;139.738;2023-01-31T07:13:03;100454.25;;;15.70;18.46
9415;BME280;4746;35.664;139.738;2023-01-31T07:15:30;100470.66;;;15.63;18.17
9415;BME280;4746;35.664;139.738;2023-01-31T07:17:59;100480.19;;;15.58;18.49
9415;BME280;4746;35.664;139.738;2023-01-31T07:20:27;100474.22;;;15.53;18.40
9415;BME280;4746;35.664;139.738;2023-01-31T07:22:56;100474.25;;;15.47;18.72
9415;BME280;4746;35.664;139.738;2023-01-31T07:25:26;100467.47;;;15.35;18.65
9415;BME280;4746;35.664;139.738;2023-01-31T07:27:54;100473.59;;;15.20;18.73
9415;BME280;4746;35.664;139.738;2023-01-31T07:30:21;100474.56;;;15.04;18.87
9415;BME280;4746;35.664;139.738;2023-01-31T07:32:49;100469.53;;;14.78;18.93
9415;BME280;4746;35.664;139.738;2023-01-31T07:35:17;100476.56;;;14.56;19.52
9415;BME280;4746;35.664;139.738;2023-01-31T07:37:46;100474.06;;;14.38;19.49
9415;BME280;4746;35.664;139.738;2023-01-31T07:40:15;100481.00;;;14.22;19.41
9415;BME280;4746;35.664;139.738;2023-01-31T07:42:47;100488.72;;;14.09;19.66
9415;BME280;4746;35.664;139.738;2023-01-31T07:45:15;100493.94;;;13.85;19.90
9415;BME280;4746;35.664;139.738;2023-01-31T07:47:43;100504.28;;;13.64;19.93
9415;BME280;4746;35.664;139.738;2023-01-31T07:50:12;100510.28;;;13.44;20.23
9415;BME280;4746;35.664;139.738;2023-01-31T07:52:40;100500.84;;;13.23;20.45
9415;BME280;4746;35.664;139.738;2023-01-31T07:55:08;100510.22;;;13.04;20.86
9415;BME280;4746;35.664;139.738;2023-01-31T07:57:38;100517.94;;;12.89;20.69
9415;BME280;4746;35.664;139.738;2023-01-31T08:00:07;100532.44;;;12.72;20.81
9415;BME280;4746;35.664;139.738;2023-01-31T08:02:54;100528.91;;;12.53;21.03
9415;BME280;4746;35.664;139.738;2023-01-31T08:05:40;100528.81;;;12.33;21.00
9415;BME280;4746;35.664;139.738;2023-01-31T08:08:07;100539.03;;;12.18;21.31
9415;BME280;4746;35.664;139.738;2023-01-31T08:10:38;100539.84;;;12.09;21.60
9415;BME280;4746;35.664;139.738;2023-01-31T08:13:06;100536.41;;;12.07;21.94
9415;BME280;4746;35.664;139.738;2023-01-31T08:15:36;100541.53;;;12.09;21.77
9415;BME280;4746;35.664;139.738;2023-01-31T08:18:04;100532.97;;;12.08;22.06
9415;BME280;4746;35.664;139.738;2023-01-31T08:20:32;100539.84;;;12.11;22.26
9415;BME280;4746;35.664;139.738;2023-01-31T08:23:00;100541.56;;;12.13;21.73
9415;BME280;4746;35.664;139.738;2023-01-31T08:25:28;100545.88;;;12.19;21.96
9415;BME280;4746;35.664;139.738;2023-01-31T08:27:59;100549.34;;;12.24;22.02
9415;BME280;4746;35.664;139.738;2023-01-31T08:30:28;100549.34;;;12.28;21.76
9415;BME280;4746;35.664;139.738;2023-01-31T08:32:58;100551.94;;;12.34;21.61
9415;BME280;4746;35.664;139.738;2023-01-31T08:35:26;100554.53;;;12.40;21.93
9415;BME280;4746;35.664;139.738;2023-01-31T08:37:54;100547.75;;;12.49;21.83
9415;BME280;4746;35.664;139.738;2023-01-31T08:40:22;100557.22;;;12.61;21.59
9415;BME280;4746;35.664;139.738;2023-01-31T08:43:00;100546.13;;;12.74;21.53
9415;BME280;4746;35.664;139.738;2023-01-31T08:45:29;100542.69;;;12.75;21.74
9415;BME280;4746;35.664;139.738;2023-01-31T08:47:59;100552.13;;;12.76;21.66
9415;BME280;4746;35.664;139.738;2023-01-31T08:50:31;100553.84;;;12.80;21.52
9415;BME280;4746;35.664;139.738;2023-01-31T08:53:04;100550.41;;;12.67;21.78
9415;BME280;4746;35.664;139.738;2023-01-31T08:55:34;100552.94;;;12.63;22.10
9415;BME280;4746;35.664;139.738;2023-01-31T08:58:03;100542.66;;;12.60;21.97
9415;BME280;4746;35.664;139.738;2023-01-31T09:00:31;100546.94;;;12.61;21.87
9415;BME280;4746;35.664;139.738;2023-01-31T09:03:00;100548.66;;;12.65;21.99
9415;BME280;4746;35.664;139.738;2023-01-31T09:05:31;100549.53;;;12.68;21.87
9415;BME280;4746;35.664;139.738;2023-01-31T09:07:59;100552.97;;;12.66;21.54
9415;BME280;4746;35.664;139.738;2023-01-31T09:10:26;100546.94;;;12.64;21.74
9415;BME280;4746;35.664;139.738;2023-01-31T09:12:54;100553.78;;;12.59;21.38
9415;BME280;4746;35.664;139.738;2023-01-31T09:15:24;100558.06;;;12.55;21.73
9415;BME280;4746;35.664;139.738;2023-01-31T09:17:52;100553.75;;;12.53;21.38
9415;BME280;4746;35.664;139.738;2023-01-31T09:20:20;100553.78;;;12.59;22.05
9415;BME280;4746;35.664;139.738;2023-01-31T09:22:47;100559.81;;;12.62;21.66
9415;BME280;4746;35.664;139.738;2023-01-31T09:25:18;100556.38;;;12.65;21.49
9415;BME280;4746;35.664;139.738;2023-01-31T09:27:48;100560.66;;;12.60;21.58
9415;BME280;4746;35.664;139.738;2023-01-31T09:30:18;100560.66;;;12.61;21.49
9415;BME280;4746;35.664;139.738;2023-01-31T09:32:53;100564.13;;;12.72;21.35
9415;BME280;4746;35.664;139.738;2023-01-31T09:35:20;100560.69;;;12.75;21.75
9415;BME280;4746;35.664;139.738;2023-01-31T09:37:48;100562.41;;;12.70;21.51
9415;BME280;4746;35.664;139.738;2023-01-31T09:40:21;100559.81;;;12.65;21.65
9415;BME280;4746;35.664;139.738;2023-01-31T09:42:52;100565.81;;;12.66;21.67
9415;BME280;4746;35.664;139.738;2023-01-31T09:45:42;100567.53;;;12.70;21.40
9415;BME280;4746;35.664;139.738;2023-01-31T09:48:19;100565.81;;;12.69;21.77
9415;BME280;4746;35.664;139.738;2023-01-31T09:50:55;100576.09;;;12.64;21.44
9415;BME280;4746;35.664;139.738;2023-01-31T09:53:35;100572.63;;;12.59;21.35
9415;BME280;4746;35.664;139.738;2023-01-31T09:59:22;100570.91;;;12.54;21.55
9415;BME280;4746;35.664;139.738;2023-01-31T10:08:39;100566.56;;;12.38;21.33
9415;BME280;4746;35.664;139.738;2023-01-31T10:11:21;100567.31;;;12.28;21.74
9415;BME280;4746;35.664;139.738;2023-01-31T10:20:05;100566.28;;;11.99;22.27
9415;BME280;4746;35.664;139.738;2023-01-31T10:25:36;100579.03;;;11.84;21.96
9415;BME280;4746;35.664;139.738;2023-01-31T10:28:22;100573.91;;;11.83;21.92
9415;BME280;4746;35.664;139.738;2023-01-31T10:31:25;100573.94;;;11.93;22.05
9415;BME280;4746;35.664;139.738;2023-01-31T10:36:49;100570.59;;;12.00;21.92
9415;BME280;4746;35.664;139.738;2023-01-31T10:39:53;100573.84;;;11.81;22.20
9415;BME280;4746;35.664;139.738;2023-01-31T10:42:37;100572.13;;;11.80;22.54
9415;BME280;4746;35.664;139.738;2023-01-31T10:48:22;100572.22;;;11.92;22.16
9415;BME280;4746;35.664;139.738;2023-01-31T10:51:04;100585.06;;;11.92;22.15
9415;BME280;4746;35.664;139.738;2023-01-31T10:56:37;100585.09;;;11.97;22.87
9415;BME280;4746;35.664;139.738;2023-01-31T10:59:32;100583.47;;;12.05;22.42
9415;BME280;4746;35.664;139.738;2023-01-31T11:02:02;100585.19;;;12.10;22.43
9415;BME280;4746;35.664;139.738;2023-01-31T11:04:37;100583.53;;;12.15;22.17
9415;BME280;4746;35.664;139.738;2023-01-31T11:07:07;100587.78;;;12.13;22.43
9415;BME280;4746;35.664;139.738;2023-01-31T11:09:46;100587.75;;;12.10;22.54
9415;BME280;4746;35.664;139.738;2023-01-31T11:12:14;100593.72;;;12.03;22.20
9415;BME280;4746;35.664;139.738;2023-01-31T11:14:42;100595.38;;;11.98;22.75
9415;BME280;4746;35.664;139.738;2023-01-31T11:17:20;100590.25;;;11.98;22.88
9415;BME280;4746;35.664;139.738;2023-01-31T11:19:55;100591.97;;;11.96;22.80
9415;BME280;4746;35.664;139.738;2023-01-31T11:22:36;100585.97;;;11.97;23.78
9415;BME280;4746;35.664;139.738;2023-01-31T11:25:05;100585.09;;;11.95;24.53
9415;BME280;4746;35.664;139.738;2023-01-31T11:27:41;100589.41;;;11.98;24.95
9415;BME280;4746;35.664;139.738;2023-01-31T11:30:35;100594.56;;;12.02;25.12
9415;BME280;4746;35.664;139.738;2023-01-31T11:33:09;100581.66;;;11.93;25.47
9415;BME280;4746;35.664;139.738;2023-01-31T11:35:53;100575.63;;;11.87;25.93
9415;BME280;4746;35.664;139.738;2023-01-31T11:38:23;100585.84;;;11.82;26.61
9415;BME280;4746;35.664;139.738;2023-01-31T11:40:51;100580.66;;;11.78;26.97
9415;BME280;4746;35.664;139.738;2023-01-31T11:45:57;100566.94;;;11.72;27.48
9415;BME280;4746;35.664;139.738;2023-01-31T11:48:40;100569.47;;;11.67;27.77
9415;BME280;4746;35.664;139.738;2023-01-31T11:51:19;100575.44;;;11.62;27.47
9415;BME280;4746;35.664;139.738;2023-01-31T11:53:51;100575.38;;;11.56;28.07
9415;BME280;4746;35.664;139.738;2023-01-31T11:56:30;100580.47;;;11.53;28.03
9415;BME280;4746;35.664;139.738;2023-01-31T11:59:04;100582.94;;;11.48;28.24
9415;BME280;4746;35.664;139.738;2023-01-31T12:01:45;100589.78;;;11.49;28.30
9415;BME280;4746;35.664;139.738;2023-01-31T12:04:42;100588.94;;;11.47;27.78
9415;BME280;4746;35.664;139.738;2023-01-31T12:07:29;100588.06;;;11.47;28.20
9415;BME280;4746;35.664;139.738;2023-01-31T12:09:58;100592.34;;;11.48;28.75
9415;BME280;4746;35.664;139.738;2023-01-31T12:12:36;100600.97;;;11.51;27.89
9415;BME280;4746;35.664;139.738;2023-01-31T12:15:14;100598.31;;;11.44;26.60
9415;BME280;4746;35.664;139.738;2023-01-31T12:17:48;100595.66;;;11.35;26.28
9415;BME280;4746;35.664;139.738;2023-01-31T12:20:21;100594.75;;;11.31;26.18
9415;BME280;4746;35.664;139.738;2023-01-31T12:23:23;100596.47;;;11.31;25.54
9415;BME280;4746;35.664;139.738;2023-01-31T12:26:13;100580.19;;;11.26;25.33
9415;BME280;4746;35.664;139.738;2023-01-31T12:34:23;100588.59;;;11.13;24.48
9415;BME280;4746;35.664;139.738;2023-01-31T12:42:41;100579.66;;;10.81;24.03
9415;BME280;4746;35.664;139.738;2023-01-31T12:59:38;100585.97;;;10.39;24.85
9415;BME280;4746;35.664;139.738;2023-01-31T13:08:23;100589.31;;;10.34;24.91
9415;BME280;4746;35.664;139.738;2023-01-31T13:16:41;100592.72;;;10.33;25.79
9415;BME280;4746;35.664;139.738;2023-01-31T13:21:56;100577.25;;;10.27;26.07
9415;BME280;4746;35.664;139.738;2023-01-31T13:24:43;100578.09;;;10.27;26.00
9415;BME280;4746;35.664;139.738;2023-01-31T13:27:32;100580.66;;;10.26;26.35
9415;BME280;4746;35.664;139.738;2023-01-31T13:30:15;100570.34;;;10.23;26.25
9415;BME280;4746;35.664;139.738;2023-01-31T13:32:51;100577.19;;;10.21;26.13
9415;BME280;4746;35.664;139.738;2023-01-31T13:35:31;100578.25;;;10.36;26.92
9415;BME280;4746;35.664;139.738;2023-01-31T13:38:12;100584.22;;;10.37;26.83
9415;BME280;4746;35.664;139.738;2023-01-31T13:40:52;100582.47;;;10.33;26.77
9415;BME280;4746;35.664;139.738;2023-01-31T13:43:21;100577.09;;;10.15;27.06
9415;BME280;4746;35.664;139.738;2023-01-31T13:46:08;100580.41;;;10.08;27.06
9415;BME280;4746;35.664;139.738;2023-01-31T13:48:54;100565.78;;;10.01;27.41
9415;BME280;4746;35.664;139.738;2023-01-31T13:51:57;100567.38;;;9.96;27.26
9415;BME280;4746;35.664;139.738;2023-01-31T13:54:38;100563.84;;;9.88;27.54
9415;BME280;4746;35.664;139.738;2023-01-31T13:59:59;100566.28;;;9.79;27.90
9415;BME280;4746;35.664;139.738;2023-01-31T14:02:30;100567.03;;;9.73;27.37
9415;BME280;4746;35.664;139.738;2023-01-31T14:28:01;100549.78;;;9.61;26.44
9415;BME280;4746;35.664;139.738;2023-01-31T14:33:20;100559.13;;;9.60;26.76
9415;BME280;4746;35.664;139.738;2023-01-31T14:44:47;100562.50;;;9.56;25.84
9415;BME280;4746;35.664;139.738;2023-01-31T14:48:00;100559.88;;;9.53;25.56
9415;BME280;4746;35.664;139.738;2023-01-31T14:56:40;100570.69;;;9.37;25.97
9415;BME280;4746;35.664;139.738;2023-01-31T14:59:46;100567.22;;;9.34;25.52
9415;BME280;4746;35.664;139.738;2023-01-31T15:05:06;100562.81;;;9.27;25.53
9415;BME280;4746;35.664;139.738;2023-01-31T15:07:49;100559.34;;;9.23;26.23
9415;BME280;4746;35.664;139.738;2023-01-31T15:13:52;100556.78;;;9.23;26.23
9415;BME280;4746;35.664;139.738;2023-01-31T15:19:09;100557.56;;;9.18;26.88
9415;BME280;4746;35.664;139.738;2023-01-31T15:21:58;100549.78;;;9.13;26.85
9415;BME280;4746;35.664;139.738;2023-01-31T15:24:40;100546.25;;;9.05;27.02
9415;BME280;4746;35.664;139.738;2023-01-31T15:27:25;100544.47;;;9.01;26.71
9415;BME280;4746;35.664;139.738;2023-01-31T15:30:10;100540.97;;;8.97;27.55
9415;BME280;4746;35.664;139.738;2023-01-31T15:32:48;100542.59;;;8.92;27.20
9415;BME280;4746;35.664;139.738;2023-01-31T15:35:31;100537.41;;;8.89;27.33
9415;BME280;4746;35.664;139.738;2023-01-31T15:41:21;100533.75;;;8.75;27.51
9415;BME280;4746;35.664;139.738;2023-01-31T15:44:10;100537.91;;;8.70;27.73
9415;BME280;4746;35.664;139.738;2023-01-31T15:46:41;100523.28;;;8.61;27.55
9415;BME280;4746;35.664;139.738;2023-01-31T15:49:29;100528.31;;;8.60;27.59
9415;BME280;4746;35.664;139.738;2023-01-31T15:52:15;100525.69;;;8.55;27.63
9415;BME280;4746;35.664;139.738;2023-01-31T15:54:58;100528.16;;;8.51;27.63
9415;BME280;4746;35.664;139.738;2023-01-31T15:57:54;100533.25;;;8.49;28.08
9415;BME280;4746;35.664;139.738;2023-01-31T16:03:01;100535.56;;;8.39;27.62
9415;BME280;4746;35.664;139.738;2023-01-31T16:05:37;100533.00;;;8.39;27.17
9415;BME280;4746;35.664;139.738;2023-01-31T16:08:31;100535.56;;;8.39;27.30